createdAt,value
2019-05-12T00:01:53.128Z,96.60
2019-05-12T00:07:54.575Z,96.70
2019-05-12T00:13:58.407Z,96.90
2019-05-12T00:19:59.269Z,97.00
2019-05-12T00:26:00.754Z,97.20
2019-05-12T00:32:02.798Z,97.50
2019-05-12T00:38:04.467Z,97.60
2019-05-12T00:44:08.190Z,97.40
2019-05-12T00:50:09.697Z,97.30
2019-05-12T00:56:11.248Z,97.60
2019-05-12T01:02:44.145Z,97.60
2019-05-12T01:08:45.798Z,97.40
2019-05-12T01:14:48.659Z,97.10
2019-05-12T01:20:50.274Z,97.00
2019-05-12T01:26:51.728Z,96.70
2019-05-12T01:32:53.459Z,96.40
2019-05-12T01:38:55.219Z,96.40
2019-05-12T01:44:58.443Z,96.70
2019-05-12T01:51:00.047Z,96.60
2019-05-12T01:57:01.561Z,96.50
2019-05-12T02:03:03.178Z,96.40
2019-05-12T02:09:08.069Z,96.30
2019-05-12T02:15:09.982Z,96.60
2019-05-12T02:21:11.555Z,96.80
2019-05-12T02:27:13.143Z,97.00
2019-05-12T02:33:16.051Z,97.10
2019-05-12T02:39:17.654Z,97.20
2019-05-12T02:45:19.485Z,97.20
2019-05-12T02:51:24.611Z,97.20
2019-05-12T02:57:27.330Z,97.40
2019-05-12T03:03:30.203Z,97.50
2019-05-12T03:09:35.099Z,97.20
2019-05-12T03:15:37.035Z,97.10
2019-05-12T03:21:38.790Z,97.40
2019-05-12T03:27:40.348Z,97.40
2019-05-12T03:33:45.756Z,97.40
2019-05-12T03:39:45.731Z,97.40
2019-05-12T03:45:47.215Z,97.30
2019-05-12T03:51:48.884Z,97.30
2019-05-12T03:57:50.378Z,97.20
2019-05-12T04:03:54.185Z,97.00
2019-05-12T04:09:55.222Z,97.20
2019-05-12T04:15:56.659Z,97.00
2019-05-12T04:21:58.350Z,96.90
2019-05-12T04:27:59.781Z,96.70
2019-05-12T04:34:04.734Z,96.30
2019-05-12T04:40:05.644Z,96.10
2019-05-12T04:46:07.342Z,95.30
2019-05-12T04:52:08.811Z,94.70
2019-05-12T04:58:10.247Z,93.40
2019-05-12T05:04:11.948Z,92.30
2019-05-12T05:10:14.683Z,91.10
2019-05-12T05:16:16.308Z,91.20
2019-05-12T05:22:17.782Z,91.30
2019-05-12T05:28:19.222Z,91.20
2019-05-12T05:34:20.710Z,90.90
2019-05-12T05:40:26.005Z,90.00
2019-05-12T05:46:27.727Z,88.60
2019-05-12T05:52:33.334Z,85.50
2019-05-12T05:58:33.902Z,84.00
2019-05-12T06:04:39.262Z,83.20
2019-05-12T06:10:40.383Z,81.70
2019-05-12T06:16:43.355Z,82.70
2019-05-12T06:22:48.598Z,78.00
2019-05-12T06:28:48.232Z,80.00
2019-05-12T06:34:50.786Z,81.40
2019-05-12T06:40:56.217Z,79.60
2019-05-12T06:47:03.620Z,82.10
2019-05-12T06:53:01.101Z,82.10
2019-05-12T06:59:10.000Z,82.30
2019-05-12T07:05:06.568Z,80.10
2019-05-12T07:11:08.013Z,79.30
2019-05-12T07:17:20.259Z,76.00
2019-05-12T07:23:25.836Z,77.20
2019-05-12T07:29:24.993Z,75.20
2019-05-12T07:35:28.037Z,73.80
2019-05-12T07:41:30.997Z,73.60
2019-05-12T07:47:33.156Z,74.50
2019-05-12T07:53:34.743Z,73.20
2019-05-12T07:59:40.837Z,75.00
2019-05-12T08:05:39.686Z,74.90
2019-05-12T08:11:43.934Z,72.20
2019-05-12T08:17:49.249Z,73.90
2019-05-12T08:23:53.448Z,76.00
2019-05-12T08:30:00.924Z,70.90
2019-05-12T08:36:05.555Z,73.30
2019-05-12T08:42:04.028Z,72.20
2019-05-12T08:48:10.415Z,70.70
2019-05-12T08:54:10.379Z,66.80
2019-05-12T09:00:13.479Z,68.80
2019-05-12T09:06:19.482Z,64.40
2019-05-12T09:12:23.326Z,65.60
2019-05-12T09:18:33.511Z,68.50
2019-05-12T09:24:28.219Z,69.20
2019-05-12T09:30:29.868Z,67.40
2019-05-12T09:36:34.913Z,62.80
2019-05-12T09:42:36.500Z,65.80
2019-05-12T09:48:46.910Z,62.20
2019-05-12T09:54:44.450Z,60.30
2019-05-12T10:00:46.027Z,60.40
2019-05-12T10:06:53.342Z,58.30
2019-05-12T10:12:57.312Z,58.20
2019-05-12T10:19:03.956Z,58.90
2019-05-12T10:25:09.817Z,61.90
2019-05-12T10:31:13.860Z,58.70
2019-05-12T10:37:29.407Z,57.30
2019-05-12T10:43:30.051Z,58.40
2019-05-12T10:49:33.715Z,57.00
2019-05-12T10:55:35.513Z,57.30
2019-05-12T11:01:45.643Z,55.80
2019-05-12T11:07:43.599Z,54.10
2019-05-12T11:13:48.807Z,56.50
2019-05-12T11:19:51.380Z,52.30
2019-05-12T11:25:53.379Z,54.60
2019-05-12T11:31:55.023Z,53.20
2019-05-12T11:37:59.925Z,53.80
2019-05-12T11:44:03.830Z,54.40
2019-05-12T11:50:09.777Z,51.80
2019-05-12T11:56:13.858Z,51.10
2019-05-12T12:02:20.240Z,53.20
2019-05-12T12:08:20.839Z,50.60
2019-05-12T12:14:24.066Z,54.40
2019-05-12T12:20:25.896Z,49.90
2019-05-12T12:26:30.258Z,51.70
2019-05-12T12:32:30.597Z,49.10
2019-05-12T12:38:33.499Z,47.20
2019-05-12T12:44:36.082Z,47.10
2019-05-12T12:50:40.171Z,44.80
2019-05-12T12:56:41.687Z,45.40
2019-05-12T13:02:45.091Z,46.00
2019-05-12T13:08:46.442Z,45.20
2019-05-12T13:14:47.947Z,46.20
2019-05-12T13:20:49.511Z,45.30
2019-05-12T13:26:51.049Z,46.80
2019-05-12T13:32:52.525Z,45.70
2019-05-12T13:38:53.969Z,46.10
2019-05-12T13:44:55.468Z,47.40
2019-05-12T13:51:07.537Z,45.80
2019-05-12T13:57:03.801Z,47.10
2019-05-12T14:03:09.472Z,46.60
2019-05-12T14:09:07.155Z,44.80
2019-05-12T14:15:09.480Z,42.70
2019-05-12T14:21:14.055Z,41.90
2019-05-12T14:27:19.101Z,44.70
2019-05-12T14:33:19.587Z,46.00
2019-05-12T14:39:21.207Z,47.00
2019-05-12T14:45:27.197Z,48.50
2019-05-12T14:51:29.197Z,48.40
2019-05-12T14:57:37.295Z,48.00
2019-05-12T15:03:34.332Z,50.30
2019-05-12T15:10:08.251Z,50.20
2019-05-12T15:16:05.412Z,53.40
2019-05-12T15:22:11.802Z,54.00
2019-05-12T15:28:10.260Z,51.40
2019-05-12T15:34:13.702Z,52.00
2019-05-12T15:40:15.377Z,50.00
2019-05-12T15:46:16.862Z,49.30
2019-05-12T15:52:19.685Z,52.60
2019-05-12T15:58:21.445Z,55.30
2019-05-12T16:04:25.912Z,55.50
2019-05-12T16:10:27.399Z,54.50
2019-05-12T16:16:36.441Z,55.40
2019-05-12T16:22:37.246Z,55.20
2019-05-12T16:28:36.356Z,55.40
2019-05-12T16:34:44.864Z,57.70
2019-05-12T16:40:47.943Z,58.60
2019-05-12T16:46:47.796Z,59.40
2019-05-12T16:52:56.426Z,59.20
2019-05-12T16:58:57.865Z,62.00
2019-05-12T17:05:06.680Z,59.50
2019-05-12T17:11:23.238Z,51.50
2019-05-12T17:17:11.428Z,53.10
2019-05-12T17:23:13.895Z,57.30
2019-05-12T17:29:15.664Z,58.90
2019-05-12T17:35:20.202Z,58.90
2019-05-12T17:41:24.196Z,54.20
2019-05-12T17:47:26.517Z,46.60
2019-05-12T17:53:35.949Z,45.00
2019-05-12T17:59:35.559Z,43.80
2019-05-12T18:05:42.090Z,44.00
2019-05-12T18:11:40.804Z,44.30
2019-05-12T18:17:45.293Z,45.00
2019-05-12T18:23:46.733Z,50.50
2019-05-12T18:29:48.510Z,53.80
2019-05-12T18:35:50.228Z,55.20
2019-05-12T18:41:54.116Z,56.40
2019-05-12T18:48:01.160Z,58.40
2019-05-12T18:54:03.736Z,60.20
2019-05-12T19:00:10.438Z,60.20
2019-05-12T19:06:14.068Z,61.00
2019-05-12T19:12:22.519Z,60.50
2019-05-12T19:18:24.427Z,60.80
2019-05-12T19:24:26.625Z,62.30
2019-05-12T19:30:28.269Z,63.50
2019-05-12T19:36:29.966Z,66.60
2019-05-12T19:42:31.676Z,68.80
2019-05-12T19:48:43.019Z,69.60
2019-05-12T19:54:37.754Z,70.50
2019-05-12T20:00:39.259Z,72.80
2019-05-12T20:06:40.704Z,73.90
2019-05-12T20:12:43.613Z,70.80
2019-05-12T20:18:49.281Z,73.60
2019-05-12T20:24:55.185Z,72.30
2019-05-12T20:31:02.792Z,73.90
2019-05-12T20:37:07.597Z,76.20
2019-05-12T20:43:12.255Z,76.70
2019-05-12T20:49:14.929Z,77.30
2019-05-12T20:55:16.621Z,76.30
2019-05-12T21:01:20.328Z,76.70
2019-05-12T21:07:24.252Z,76.60
2019-05-12T21:13:27.241Z,76.80
2019-05-12T21:19:29.307Z,75.80
2019-05-12T21:25:33.757Z,76.20
2019-05-12T21:31:34.707Z,78.50
2019-05-12T21:37:44.565Z,79.20
2019-05-12T21:43:39.450Z,80.60
2019-05-12T21:49:42.752Z,81.40
2019-05-12T21:55:44.458Z,82.40
2019-05-12T22:01:46.298Z,83.60
2019-05-12T22:07:47.886Z,84.80
2019-05-12T22:13:58.174Z,86.20
2019-05-12T22:19:53.566Z,87.10
2019-05-12T22:25:59.900Z,88.10
2019-05-12T22:31:58.424Z,88.70
2019-05-12T22:37:59.898Z,90.10
2019-05-12T22:44:01.489Z,90.60
2019-05-12T22:50:04.292Z,90.80
2019-05-12T22:56:12.266Z,91.00
2019-05-12T23:02:10.245Z,91.00
2019-05-12T23:08:14.060Z,91.40
2019-05-12T23:14:20.984Z,92.10
2019-05-12T23:20:18.672Z,92.50
2019-05-12T23:26:24.571Z,93.10
2019-05-12T23:32:26.211Z,93.50
2019-05-12T23:38:27.902Z,93.50
2019-05-12T23:44:29.332Z,93.90
2019-05-12T23:50:30.936Z,94.20
2019-05-12T23:56:33.705Z,94.40
